Ahtanum, WA

10:31 AM PST on January 31, 2015 (GMT -0800)
40th and Tieton Dr | Change Station
CLOSE
Current Station
Personal Weather Station
Location: Yakima, WA
Elevation: 1178 ft
Nearby Weather Stations

Elev 1178 ft 46.59 °N, 120.56 °W | Updated 8 seconds ago

Overcast
Overcast
37.4 °F
Feels Like 37 °F
N
1.6
Wind Variable Wind from NE
Gusts 3.1 mph

Today
High -- | Low -- °F
--% Chance of Precip.
Yesterday
High -- | Low -- °F
Precip. -- in
7:27 AM 5:04 PM
Waxing Gibbous, 91% visible
Pressure 30.40 in
Visibility 10.0 miles
Clouds Overcast 1200 ft
Windchill 37 °F
Dew Point 34 °F
Humidity 88%
Rainfall 0.00 in
Snow Depth Not available.
UV 0.0 out of 12
Pollen 3.60 out of 12
Air Quality Not available.
Flu Activity Not available.
METAR KYKM 311753Z 20003KT 10SM OVC012 03/00 A3036 RMK AO2 SLP292 T00280000 10028 20017 53013

More Conditions Fewer Conditions

Pressure 30.40 in
Visibility 10.0 miles
Clouds Overcast 1200 ft
Windchill 37 °F
Dew Point 34 °F
Humidity 88%
Rainfall 0.00 in
Snow Depth Not available.
UV 0.0 out of 12
Pollen 3.60 out of 12
Air Quality Not available.
Flu Activity Not available.
METAR KYKM 311753Z 20003KT 10SM OVC012 03/00 A3036 RMK AO2 SLP292 T00280000 10028 20017 53013

More Conditions Fewer Conditions

10-Day Weather Forecast

Almanac

Astronomy

Jan. 31, 2015 Rise Set
Actual Time
Civil Twilight
Nautical Twilight
Astronomical Twilight
Moon
Length of Visible Light
Length of Day
Tomorrow will be .
, % of the Moon is Illuminated

Today's Extremes

State Highs State Lows

Community

WunderPhotos

Upload Photos

1,792,143 photos uploaded!

WunderBlogs® & News

Nearby

Air Quality

  Air Quality AQ Index Pollutant
Not available.

Snow Depth

Station Depth Elevation

Earthquake Activity

City Distance Mag. Time & Date
Minimum magnitude displayed is 2.5.

Coastal Water Temperatures

Place Temperature

Nearby Weather Stations